Terminal Aerodrome Forecast
Issued by NWS

Home | Current Version | Previous Version | Text Only | Print | Product List | Glossary On
Versions: 1 2 3 4 5 6 7 8 9 10 11 12 13 14 15
000
FTAK31 PAJN 221310 AAA
TAFAPG
TAF AMD
PAPG 221310Z 2213/2312 VRB05KT P6SM -RA OVC025 WS020/17025KT
      TEMPO 2213/2215 21010G18KT 4SM RA BR OVC015
     FM221500 23005KT P6SM -SHRA SCT015 OVC030
     FM222000 09005KT P6SM -SHRA SCT025 OVC035
     FM230300 VRB03KT P6SM VCSH SCT025 OVC040
     FM230900 VRB03KT P6SM FEW005 BKN040
      AMD LTD TO CLD VIS AND WIND 2212/2215=

USA.gov is the U.S. government's official web portal to all federal, state and local government web resources and services.